TAF EPSY 110530Z 1106/1115 13010KT CAVOK TEMPO 1109/1115 14013G26KT=